Billings, New York
Current Conditions -  °F | °C
As of 4:53 AM on Wednesday 26 Nov 2014 (Local Time) from KPOU Reporting Station
Overcast Overcast  
Wind Chill: 38°   Ceiling: 11000
Heat Index: 41°   Visibility: 10mi
Dew Point: 30°   Wind: 5mph
Humidity: 65%   Direction: 20°NNE
Pressure: 30.19"   Gusts: NA
Location:  41.67°N, 73.76°W
Report Text: KPOU 260953Z AUTO 02004KT 10SM OVC110 05/M01 A3019 RMK AO2 SLP222 T00501011 TSNO
Loading
Personal Weather Stations






























Interactive Weather Map New forecast layout! Learn more

10-Day Weather Forecast

Advertisements
Track Severe Weather on mobile